sensor_id;sensor_type;location;lat;lon;timestamp;P1;durP1;ratioP1;P2;durP2;ratioP2
16522;SDS011;19889;52.546;13.348;2023-04-07T00:00:14;12.70;;;7.70;;
16522;SDS011;19889;52.546;13.348;2023-04-07T00:02:42;10.20;;;6.97;;
16522;SDS011;19889;52.546;13.348;2023-04-07T00:05:09;9.67;;;7.57;;
16522;SDS011;19889;52.546;13.348;2023-04-07T00:07:37;11.40;;;7.90;;
16522;SDS011;19889;52.546;13.348;2023-04-07T00:10:04;13.63;;;8.07;;
16522;SDS011;19889;52.546;13.348;2023-04-07T00:12:32;10.37;;;8.13;;
16522;SDS011;19889;52.546;13.348;2023-04-07T00:15:00;11.30;;;8.57;;
16522;SDS011;19889;52.546;13.348;2023-04-07T00:17:27;12.40;;;8.43;;
16522;SDS011;19889;52.546;13.348;2023-04-07T00:19:53;11.80;;;8.37;;
16522;SDS011;19889;52.546;13.348;2023-04-07T00:22:20;11.50;;;8.50;;
16522;SDS011;19889;52.546;13.348;2023-04-07T00:24:49;13.50;;;9.10;;
16522;SDS011;19889;52.546;13.348;2023-04-07T00:27:16;12.80;;;9.13;;
16522;SDS011;19889;52.546;13.348;2023-04-07T00:29:43;15.13;;;10.20;;
16522;SDS011;19889;52.546;13.348;2023-04-07T00:32:11;17.87;;;9.50;;
16522;SDS011;19889;52.546;13.348;2023-04-07T00:34:38;13.53;;;9.17;;
16522;SDS011;19889;52.546;13.348;2023-04-07T00:37:05;15.60;;;9.30;;
16522;SDS011;19889;52.546;13.348;2023-04-07T00:39:32;14.70;;;8.17;;
16522;SDS011;19889;52.546;13.348;2023-04-07T00:42:00;12.87;;;9.13;;
16522;SDS011;19889;52.546;13.348;2023-04-07T00:44:28;11.80;;;8.07;;
16522;SDS011;19889;52.546;13.348;2023-04-07T00:46:56;12.23;;;7.80;;
16522;SDS011;19889;52.546;13.348;2023-04-07T00:49:24;16.27;;;8.43;;
16522;SDS011;19889;52.546;13.348;2023-04-07T00:51:52;10.97;;;7.40;;
16522;SDS011;19889;52.546;13.348;2023-04-07T00:54:19;10.83;;;7.30;;
16522;SDS011;19889;52.546;13.348;2023-04-07T00:56:48;11.60;;;7.30;;
16522;SDS011;19889;52.546;13.348;2023-04-07T00:59:17;12.33;;;8.13;;
16522;SDS011;19889;52.546;13.348;2023-04-07T01:01:46;10.23;;;7.67;;
16522;SDS011;19889;52.546;13.348;2023-04-07T01:04:21;12.03;;;7.70;;
16522;SDS011;19889;52.546;13.348;2023-04-07T01:06:53;8.23;;;6.27;;
16522;SDS011;19889;52.546;13.348;2023-04-07T01:09:35;12.33;;;7.60;;
16522;SDS011;19889;52.546;13.348;2023-04-07T01:12:06;11.87;;;6.63;;
16522;SDS011;19889;52.546;13.348;2023-04-07T01:14:44;10.53;;;6.50;;
16522;SDS011;19889;52.546;13.348;2023-04-07T01:17:33;12.33;;;7.53;;
16522;SDS011;19889;52.546;13.348;2023-04-07T01:20:02;9.37;;;7.00;;
16522;SDS011;19889;52.546;13.348;2023-04-07T01:22:33;9.23;;;7.17;;
16522;SDS011;19889;52.546;13.348;2023-04-07T01:25:17;13.03;;;7.57;;
16522;SDS011;19889;52.546;13.348;2023-04-07T01:27:59;9.60;;;6.90;;
16522;SDS011;19889;52.546;13.348;2023-04-07T01:30:46;12.30;;;7.20;;
16522;SDS011;19889;52.546;13.348;2023-04-07T01:33:15;9.93;;;7.23;;
16522;SDS011;19889;52.546;13.348;2023-04-07T01:35:43;7.87;;;6.77;;
16522;SDS011;19889;52.546;13.348;2023-04-07T01:38:12;10.67;;;6.53;;
16522;SDS011;19889;52.546;13.348;2023-04-07T01:40:40;8.07;;;6.67;;
16522;SDS011;19889;52.546;13.348;2023-04-07T01:43:09;10.83;;;7.07;;
16522;SDS011;19889;52.546;13.348;2023-04-07T01:45:38;10.43;;;7.40;;
16522;SDS011;19889;52.546;13.348;2023-04-07T01:48:08;12.40;;;7.37;;
16522;SDS011;19889;52.546;13.348;2023-04-07T01:50:37;9.43;;;7.00;;
16522;SDS011;19889;52.546;13.348;2023-04-07T01:53:04;9.03;;;6.57;;
16522;SDS011;19889;52.546;13.348;2023-04-07T01:55:32;11.23;;;6.93;;
16522;SDS011;19889;52.546;13.348;2023-04-07T01:58:04;9.77;;;6.50;;
16522;SDS011;19889;52.546;13.348;2023-04-07T02:00:32;10.83;;;7.23;;
16522;SDS011;19889;52.546;13.348;2023-04-07T02:03:04;11.80;;;7.30;;
16522;SDS011;19889;52.546;13.348;2023-04-07T02:05:37;8.93;;;6.17;;
16522;SDS011;19889;52.546;13.348;2023-04-07T02:08:07;8.93;;;6.50;;
16522;SDS011;19889;52.546;13.348;2023-04-07T02:10:36;10.33;;;6.70;;
16522;SDS011;19889;52.546;13.348;2023-04-07T02:13:04;13.40;;;7.90;;
16522;SDS011;19889;52.546;13.348;2023-04-07T02:15:34;10.67;;;7.43;;
16522;SDS011;19889;52.546;13.348;2023-04-07T02:18:02;9.60;;;7.00;;
16522;SDS011;19889;52.546;13.348;2023-04-07T02:20:32;12.20;;;8.53;;
16522;SDS011;19889;52.546;13.348;2023-04-07T02:23:02;9.90;;;7.17;;
16522;SDS011;19889;52.546;13.348;2023-04-07T02:25:29;8.60;;;6.70;;
16522;SDS011;19889;52.546;13.348;2023-04-07T02:27:59;12.40;;;8.10;;
16522;SDS011;19889;52.546;13.348;2023-04-07T02:30:26;9.93;;;6.87;;
16522;SDS011;19889;52.546;13.348;2023-04-07T02:32:54;9.37;;;7.40;;
16522;SDS011;19889;52.546;13.348;2023-04-07T02:35:21;9.37;;;7.07;;
16522;SDS011;19889;52.546;13.348;2023-04-07T02:37:50;9.90;;;7.10;;
16522;SDS011;19889;52.546;13.348;2023-04-07T02:40:18;9.77;;;7.73;;
16522;SDS011;19889;52.546;13.348;2023-04-07T02:42:45;8.33;;;7.07;;
16522;SDS011;19889;52.546;13.348;2023-04-07T02:45:12;13.80;;;7.57;;
16522;SDS011;19889;52.546;13.348;2023-04-07T02:47:40;11.60;;;7.87;;
16522;SDS011;19889;52.546;13.348;2023-04-07T02:50:07;10.80;;;7.37;;
16522;SDS011;19889;52.546;13.348;2023-04-07T02:52:35;11.33;;;7.30;;
16522;SDS011;19889;52.546;13.348;2023-04-07T02:55:10;11.63;;;7.33;;
16522;SDS011;19889;52.546;13.348;2023-04-07T02:57:37;11.10;;;7.27;;
16522;SDS011;19889;52.546;13.348;2023-04-07T03:00:09;13.77;;;6.90;;
16522;SDS011;19889;52.546;13.348;2023-04-07T03:02:51;10.60;;;7.07;;
16522;SDS011;19889;52.546;13.348;2023-04-07T03:05:18;12.30;;;7.83;;
16522;SDS011;19889;52.546;13.348;2023-04-07T03:07:45;9.03;;;6.83;;
16522;SDS011;19889;52.546;13.348;2023-04-07T03:10:14;9.80;;;7.13;;
16522;SDS011;19889;52.546;13.348;2023-04-07T03:12:41;9.90;;;7.43;;
16522;SDS011;19889;52.546;13.348;2023-04-07T03:15:09;11.23;;;7.50;;
16522;SDS011;19889;52.546;13.348;2023-04-07T03:17:38;9.53;;;7.67;;
16522;SDS011;19889;52.546;13.348;2023-04-07T03:20:05;11.20;;;7.30;;
16522;SDS011;19889;52.546;13.348;2023-04-07T03:22:35;10.53;;;7.37;;
16522;SDS011;19889;52.546;13.348;2023-04-07T03:25:06;9.43;;;7.00;;
16522;SDS011;19889;52.546;13.348;2023-04-07T03:27:34;11.50;;;7.47;;
16522;SDS011;19889;52.546;13.348;2023-04-07T03:30:01;12.23;;;7.17;;
16522;SDS011;19889;52.546;13.348;2023-04-07T03:32:29;9.60;;;7.03;;
16522;SDS011;19889;52.546;13.348;2023-04-07T03:34:56;8.43;;;6.67;;
16522;SDS011;19889;52.546;13.348;2023-04-07T03:37:23;10.90;;;7.07;;
16522;SDS011;19889;52.546;13.348;2023-04-07T03:39:51;11.53;;;7.20;;
16522;SDS011;19889;52.546;13.348;2023-04-07T03:42:24;13.07;;;6.43;;
16522;SDS011;19889;52.546;13.348;2023-04-07T03:44:59;9.73;;;7.60;;
16522;SDS011;19889;52.546;13.348;2023-04-07T03:47:27;10.90;;;6.53;;
16522;SDS011;19889;52.546;13.348;2023-04-07T03:49:58;12.43;;;6.87;;
16522;SDS011;19889;52.546;13.348;2023-04-07T03:52:26;9.70;;;6.30;;
16522;SDS011;19889;52.546;13.348;2023-04-07T03:55:00;9.60;;;6.83;;
16522;SDS011;19889;52.546;13.348;2023-04-07T03:57:30;8.13;;;6.17;;
16522;SDS011;19889;52.546;13.348;2023-04-07T03:59:58;8.97;;;7.10;;
16522;SDS011;19889;52.546;13.348;2023-04-07T04:02:29;9.33;;;6.50;;
16522;SDS011;19889;52.546;13.348;2023-04-07T04:04:57;9.73;;;7.53;;
16522;SDS011;19889;52.546;13.348;2023-04-07T04:07:25;10.10;;;7.00;;
16522;SDS011;19889;52.546;13.348;2023-04-07T04:09:55;8.53;;;6.17;;
16522;SDS011;19889;52.546;13.348;2023-04-07T04:12:22;8.83;;;6.80;;
16522;SDS011;19889;52.546;13.348;2023-04-07T04:15:02;7.17;;;6.20;;
16522;SDS011;19889;52.546;13.348;2023-04-07T04:17:30;6.87;;;5.70;;
16522;SDS011;19889;52.546;13.348;2023-04-07T04:19:57;8.77;;;6.07;;
16522;SDS011;19889;52.546;13.348;2023-04-07T04:22:35;8.53;;;5.93;;
16522;SDS011;19889;52.546;13.348;2023-04-07T04:25:03;10.07;;;6.40;;
16522;SDS011;19889;52.546;13.348;2023-04-07T04:27:30;11.43;;;6.20;;
16522;SDS011;19889;52.546;13.348;2023-04-07T04:30:07;6.70;;;5.40;;
16522;SDS011;19889;52.546;13.348;2023-04-07T04:32:43;9.90;;;6.07;;
16522;SDS011;19889;52.546;13.348;2023-04-07T04:35:10;10.97;;;6.03;;
16522;SDS011;19889;52.546;13.348;2023-04-07T04:37:47;6.30;;;5.47;;
16522;SDS011;19889;52.546;13.348;2023-04-07T04:40:14;10.77;;;8.03;;
16522;SDS011;19889;52.546;13.348;2023-04-07T04:42:45;7.03;;;5.83;;
16522;SDS011;19889;52.546;13.348;2023-04-07T04:45:15;9.43;;;5.57;;
16522;SDS011;19889;52.546;13.348;2023-04-07T04:47:45;9.03;;;5.93;;
16522;SDS011;19889;52.546;13.348;2023-04-07T04:50:12;8.30;;;5.97;;
16522;SDS011;19889;52.546;13.348;2023-04-07T04:52:40;6.60;;;5.43;;
16522;SDS011;19889;52.546;13.348;2023-04-07T04:55:15;9.40;;;5.90;;
16522;SDS011;19889;52.546;13.348;2023-04-07T04:57:43;7.53;;;5.47;;
16522;SDS011;19889;52.546;13.348;2023-04-07T05:00:13;11.53;;;6.07;;
16522;SDS011;19889;52.546;13.348;2023-04-07T05:02:44;7.97;;;5.67;;
16522;SDS011;19889;52.546;13.348;2023-04-07T05:05:12;8.60;;;6.30;;
16522;SDS011;19889;52.546;13.348;2023-04-07T05:07:39;7.93;;;5.33;;
16522;SDS011;19889;52.546;13.348;2023-04-07T05:10:09;10.07;;;6.20;;
16522;SDS011;19889;52.546;13.348;2023-04-07T05:12:43;9.23;;;6.47;;
16522;SDS011;19889;52.546;13.348;2023-04-07T05:15:10;7.37;;;5.80;;
16522;SDS011;19889;52.546;13.348;2023-04-07T05:17:40;6.87;;;6.03;;
16522;SDS011;19889;52.546;13.348;2023-04-07T05:20:10;9.63;;;5.60;;
16522;SDS011;19889;52.546;13.348;2023-04-07T05:22:40;9.13;;;5.80;;
16522;SDS011;19889;52.546;13.348;2023-04-07T05:25:11;9.87;;;6.40;;
16522;SDS011;19889;52.546;13.348;2023-04-07T05:27:40;8.60;;;5.70;;
16522;SDS011;19889;52.546;13.348;2023-04-07T05:30:12;7.67;;;5.50;;
16522;SDS011;19889;52.546;13.348;2023-04-07T05:32:41;8.33;;;5.73;;
16522;SDS011;19889;52.546;13.348;2023-04-07T05:35:19;7.93;;;6.20;;
16522;SDS011;19889;52.546;13.348;2023-04-07T05:37:51;10.30;;;6.30;;
16522;SDS011;19889;52.546;13.348;2023-04-07T05:40:18;7.80;;;6.03;;
16522;SDS011;19889;52.546;13.348;2023-04-07T05:42:45;10.37;;;6.60;;
16522;SDS011;19889;52.546;13.348;2023-04-07T05:45:12;12.07;;;7.30;;
16522;SDS011;19889;52.546;13.348;2023-04-07T05:47:45;8.00;;;6.80;;
16522;SDS011;19889;52.546;13.348;2023-04-07T05:50:17;10.90;;;7.90;;
16522;SDS011;19889;52.546;13.348;2023-04-07T05:52:45;11.53;;;7.47;;
16522;SDS011;19889;52.546;13.348;2023-04-07T05:55:20;10.03;;;7.00;;
16522;SDS011;19889;52.546;13.348;2023-04-07T05:57:48;12.10;;;6.43;;
16522;SDS011;19889;52.546;13.348;2023-04-07T06:00:19;9.60;;;6.83;;
16522;SDS011;19889;52.546;13.348;2023-04-07T06:02:57;9.33;;;6.43;;
16522;SDS011;19889;52.546;13.348;2023-04-07T06:05:27;10.30;;;5.80;;
16522;SDS011;19889;52.546;13.348;2023-04-07T06:07:55;8.30;;;5.93;;
16522;SDS011;19889;52.546;13.348;2023-04-07T06:10:25;9.33;;;6.50;;
16522;SDS011;19889;52.546;13.348;2023-04-07T06:12:52;10.03;;;6.57;;
16522;SDS011;19889;52.546;13.348;2023-04-07T06:15:20;8.60;;;6.20;;
16522;SDS011;19889;52.546;13.348;2023-04-07T06:17:47;8.40;;;6.30;;
16522;SDS011;19889;52.546;13.348;2023-04-07T06:20:15;10.43;;;7.17;;
16522;SDS011;19889;52.546;13.348;2023-04-07T06:22:44;10.70;;;6.60;;
16522;SDS011;19889;52.546;13.348;2023-04-07T06:25:11;8.80;;;6.70;;
16522;SDS011;19889;52.546;13.348;2023-04-07T06:27:38;9.53;;;7.00;;
16522;SDS011;19889;52.546;13.348;2023-04-07T06:30:06;9.67;;;6.30;;
16522;SDS011;19889;52.546;13.348;2023-04-07T06:32:34;12.47;;;7.37;;
16522;SDS011;19889;52.546;13.348;2023-04-07T06:35:01;9.17;;;7.33;;
16522;SDS011;19889;52.546;13.348;2023-04-07T06:37:30;9.57;;;7.20;;
16522;SDS011;19889;52.546;13.348;2023-04-07T06:39:57;8.43;;;6.20;;
16522;SDS011;19889;52.546;13.348;2023-04-07T06:42:24;10.83;;;7.10;;
16522;SDS011;19889;52.546;13.348;2023-04-07T06:45:04;11.77;;;6.50;;
16522;SDS011;19889;52.546;13.348;2023-04-07T06:47:31;9.00;;;6.83;;
16522;SDS011;19889;52.546;13.348;2023-04-07T06:49:58;10.27;;;6.87;;
16522;SDS011;19889;52.546;13.348;2023-04-07T06:52:25;10.97;;;6.87;;
16522;SDS011;19889;52.546;13.348;2023-04-07T06:54:54;8.10;;;6.80;;
16522;SDS011;19889;52.546;13.348;2023-04-07T06:57:21;10.57;;;6.27;;
16522;SDS011;19889;52.546;13.348;2023-04-07T06:59:48;7.60;;;6.10;;
16522;SDS011;19889;52.546;13.348;2023-04-07T07:02:15;8.87;;;6.60;;
16522;SDS011;19889;52.546;13.348;2023-04-07T07:04:42;11.13;;;7.10;;
16522;SDS011;19889;52.546;13.348;2023-04-07T07:07:09;8.23;;;6.47;;
16522;SDS011;19889;52.546;13.348;2023-04-07T07:09:36;11.13;;;6.70;;
16522;SDS011;19889;52.546;13.348;2023-04-07T07:12:05;8.70;;;6.93;;
16522;SDS011;19889;52.546;13.348;2023-04-07T07:14:32;8.27;;;6.50;;
16522;SDS011;19889;52.546;13.348;2023-04-07T07:16:59;8.90;;;6.77;;
16522;SDS011;19889;52.546;13.348;2023-04-07T07:19:26;10.27;;;6.30;;
16522;SDS011;19889;52.546;13.348;2023-04-07T07:21:53;7.63;;;5.93;;
16522;SDS011;19889;52.546;13.348;2023-04-07T07:24:20;8.77;;;6.23;;
16522;SDS011;19889;52.546;13.348;2023-04-07T07:26:47;9.30;;;5.60;;
16522;SDS011;19889;52.546;13.348;2023-04-07T07:29:15;10.80;;;6.67;;
16522;SDS011;19889;52.546;13.348;2023-04-07T07:31:42;8.27;;;6.23;;
16522;SDS011;19889;52.546;13.348;2023-04-07T07:34:09;10.67;;;6.83;;
16522;SDS011;19889;52.546;13.348;2023-04-07T07:36:36;8.67;;;5.83;;
16522;SDS011;19889;52.546;13.348;2023-04-07T07:39:03;6.80;;;5.63;;
16522;SDS011;19889;52.546;13.348;2023-04-07T07:41:30;6.67;;;5.20;;
16522;SDS011;19889;52.546;13.348;2023-04-07T07:43:57;6.07;;;5.40;;
16522;SDS011;19889;52.546;13.348;2023-04-07T07:46:26;7.10;;;4.93;;
16522;SDS011;19889;52.546;13.348;2023-04-07T07:48:53;9.57;;;6.00;;
16522;SDS011;19889;52.546;13.348;2023-04-07T07:51:19;7.43;;;5.07;;
16522;SDS011;19889;52.546;13.348;2023-04-07T07:53:47;7.60;;;5.20;;
16522;SDS011;19889;52.546;13.348;2023-04-07T07:56:14;8.47;;;5.20;;
16522;SDS011;19889;52.546;13.348;2023-04-07T07:58:41;10.57;;;5.97;;
16522;SDS011;19889;52.546;13.348;2023-04-07T08:01:07;7.90;;;4.73;;
16522;SDS011;19889;52.546;13.348;2023-04-07T08:03:36;7.77;;;5.23;;
16522;SDS011;19889;52.546;13.348;2023-04-07T08:06:03;9.70;;;5.23;;
16522;SDS011;19889;52.546;13.348;2023-04-07T08:08:31;7.23;;;4.67;;
16522;SDS011;19889;52.546;13.348;2023-04-07T08:10:58;6.43;;;4.23;;
16522;SDS011;19889;52.546;13.348;2023-04-07T08:13:25;6.13;;;4.27;;
16522;SDS011;19889;52.546;13.348;2023-04-07T08:15:52;4.90;;;3.90;;
16522;SDS011;19889;52.546;13.348;2023-04-07T08:18:19;5.63;;;3.53;;
16522;SDS011;19889;52.546;13.348;2023-04-07T08:20:47;6.03;;;4.60;;
16522;SDS011;19889;52.546;13.348;2023-04-07T08:23:15;7.07;;;3.87;;
16522;SDS011;19889;52.546;13.348;2023-04-07T08:25:42;4.70;;;3.57;;
16522;SDS011;19889;52.546;13.348;2023-04-07T08:28:09;5.67;;;3.73;;
16522;SDS011;19889;52.546;13.348;2023-04-07T08:30:36;4.80;;;3.27;;
16522;SDS011;19889;52.546;13.348;2023-04-07T08:33:04;4.90;;;3.63;;
16522;SDS011;19889;52.546;13.348;2023-04-07T08:35:31;5.50;;;3.33;;
16522;SDS011;19889;52.546;13.348;2023-04-07T08:37:59;4.07;;;3.30;;
16522;SDS011;19889;52.546;13.348;2023-04-07T08:40:27;5.53;;;3.00;;
16522;SDS011;19889;52.546;13.348;2023-04-07T08:42:54;5.27;;;3.23;;
16522;SDS011;19889;52.546;13.348;2023-04-07T08:45:24;5.07;;;3.77;;
16522;SDS011;19889;52.546;13.348;2023-04-07T08:47:52;7.10;;;4.20;;
16522;SDS011;19889;52.546;13.348;2023-04-07T08:50:21;6.83;;;4.13;;
16522;SDS011;19889;52.546;13.348;2023-04-07T08:52:52;5.20;;;3.87;;
16522;SDS011;19889;52.546;13.348;2023-04-07T08:55:22;4.87;;;3.23;;
16522;SDS011;19889;52.546;13.348;2023-04-07T08:57:50;4.17;;;3.77;;
16522;SDS011;19889;52.546;13.348;2023-04-07T09:00:18;5.67;;;3.97;;
16522;SDS011;19889;52.546;13.348;2023-04-07T09:02:45;7.63;;;4.60;;
16522;SDS011;19889;52.546;13.348;2023-04-07T09:05:13;5.03;;;3.43;;
16522;SDS011;19889;52.546;13.348;2023-04-07T09:07:40;9.40;;;4.20;;
16522;SDS011;19889;52.546;13.348;2023-04-07T09:10:08;4.30;;;3.70;;
16522;SDS011;19889;52.546;13.348;2023-04-07T09:12:36;9.73;;;3.90;;
16522;SDS011;19889;52.546;13.348;2023-04-07T09:15:04;4.50;;;3.77;;
16522;SDS011;19889;52.546;13.348;2023-04-07T09:17:32;5.23;;;3.57;;
16522;SDS011;19889;52.546;13.348;2023-04-07T09:20:00;4.70;;;3.87;;
16522;SDS011;19889;52.546;13.348;2023-04-07T09:22:35;5.33;;;4.30;;
16522;SDS011;19889;52.546;13.348;2023-04-07T09:25:14;5.73;;;3.17;;
16522;SDS011;19889;52.546;13.348;2023-04-07T09:27:58;4.67;;;3.07;;
16522;SDS011;19889;52.546;13.348;2023-04-07T09:30:27;5.63;;;3.23;;
16522;SDS011;19889;52.546;13.348;2023-04-07T09:32:55;5.50;;;3.40;;
16522;SDS011;19889;52.546;13.348;2023-04-07T09:35:23;6.43;;;3.10;;
16522;SDS011;19889;52.546;13.348;2023-04-07T09:38:02;10.73;;;3.37;;
16522;SDS011;19889;52.546;13.348;2023-04-07T09:40:30;3.40;;;2.77;;
16522;SDS011;19889;52.546;13.348;2023-04-07T09:42:59;3.90;;;3.20;;
16522;SDS011;19889;52.546;13.348;2023-04-07T09:45:28;5.47;;;3.47;;
16522;SDS011;19889;52.546;13.348;2023-04-07T09:48:04;4.23;;;3.17;;
16522;SDS011;19889;52.546;13.348;2023-04-07T09:50:33;5.20;;;3.53;;
16522;SDS011;19889;52.546;13.348;2023-04-07T09:53:01;3.93;;;3.00;;
16522;SDS011;19889;52.546;13.348;2023-04-07T09:55:28;4.43;;;3.20;;
16522;SDS011;19889;52.546;13.348;2023-04-07T09:57:56;4.87;;;3.40;;
16522;SDS011;19889;52.546;13.348;2023-04-07T10:00:25;5.13;;;2.70;;
16522;SDS011;19889;52.546;13.348;2023-04-07T10:02:52;6.43;;;3.17;;
16522;SDS011;19889;52.546;13.348;2023-04-07T10:05:20;4.00;;;2.53;;
16522;SDS011;19889;52.546;13.348;2023-04-07T10:07:47;4.10;;;2.77;;
16522;SDS011;19889;52.546;13.348;2023-04-07T10:10:15;4.10;;;2.73;;
16522;SDS011;19889;52.546;13.348;2023-04-07T10:12:42;3.70;;;2.47;;
16522;SDS011;19889;52.546;13.348;2023-04-07T10:15:11;3.23;;;2.47;;
16522;SDS011;19889;52.546;13.348;2023-04-07T10:17:41;2.70;;;2.30;;
16522;SDS011;19889;52.546;13.348;2023-04-07T10:20:13;4.03;;;2.63;;
16522;SDS011;19889;52.546;13.348;2023-04-07T10:22:42;4.50;;;3.00;;
16522;SDS011;19889;52.546;13.348;2023-04-07T10:25:11;4.27;;;2.60;;
16522;SDS011;19889;52.546;13.348;2023-04-07T10:27:43;3.77;;;2.90;;
16522;SDS011;19889;52.546;13.348;2023-04-07T10:30:19;4.97;;;2.20;;
16522;SDS011;19889;52.546;13.348;2023-04-07T10:32:50;4.37;;;2.73;;
16522;SDS011;19889;52.546;13.348;2023-04-07T10:35:18;3.57;;;2.37;;
16522;SDS011;19889;52.546;13.348;2023-04-07T10:40:38;6.40;;;2.87;;
16522;SDS011;19889;52.546;13.348;2023-04-07T10:43:06;3.90;;;3.20;;
16522;SDS011;19889;52.546;13.348;2023-04-07T10:45:51;3.90;;;2.80;;
16522;SDS011;19889;52.546;13.348;2023-04-07T10:48:21;5.73;;;2.90;;
16522;SDS011;19889;52.546;13.348;2023-04-07T10:51:11;4.77;;;2.90;;
16522;SDS011;19889;52.546;13.348;2023-04-07T10:57:09;2.93;;;2.63;;
16522;SDS011;19889;52.546;13.348;2023-04-07T10:59:39;5.97;;;3.07;;
16522;SDS011;19889;52.546;13.348;2023-04-07T11:02:32;3.53;;;2.80;;
16522;SDS011;19889;52.546;13.348;2023-04-07T11:05:01;4.90;;;3.27;;
16522;SDS011;19889;52.546;13.348;2023-04-07T11:10:15;3.63;;;3.03;;
16522;SDS011;19889;52.546;13.348;2023-04-07T11:12:43;5.37;;;2.90;;
16522;SDS011;19889;52.546;13.348;2023-04-07T11:15:23;4.70;;;3.10;;
16522;SDS011;19889;52.546;13.348;2023-04-07T11:20:44;3.60;;;3.13;;
16522;SDS011;19889;52.546;13.348;2023-04-07T11:23:16;5.10;;;3.50;;
16522;SDS011;19889;52.546;13.348;2023-04-07T11:25:45;5.33;;;2.80;;
16522;SDS011;19889;52.546;13.348;2023-04-07T11:28:13;4.10;;;3.23;;
16522;SDS011;19889;52.546;13.348;2023-04-07T11:30:44;4.67;;;3.33;;
16522;SDS011;19889;52.546;13.348;2023-04-07T11:33:14;7.33;;;3.70;;
16522;SDS011;19889;52.546;13.348;2023-04-07T11:35:49;5.07;;;3.53;;
16522;SDS011;19889;52.546;13.348;2023-04-07T11:38:19;4.53;;;3.30;;
16522;SDS011;19889;52.546;13.348;2023-04-07T11:40:47;3.80;;;3.30;;
16522;SDS011;19889;52.546;13.348;2023-04-07T11:43:15;6.03;;;4.03;;
16522;SDS011;19889;52.546;13.348;2023-04-07T11:46:03;5.83;;;4.33;;
16522;SDS011;19889;52.546;13.348;2023-04-07T11:48:33;5.23;;;3.83;;
16522;SDS011;19889;52.546;13.348;2023-04-07T11:51:03;5.13;;;3.90;;
16522;SDS011;19889;52.546;13.348;2023-04-07T11:53:31;5.23;;;4.30;;
16522;SDS011;19889;52.546;13.348;2023-04-07T11:56:02;6.50;;;4.20;;
16522;SDS011;19889;52.546;13.348;2023-04-07T11:58:31;5.57;;;4.07;;
16522;SDS011;19889;52.546;13.348;2023-04-07T12:01:00;5.27;;;3.50;;
16522;SDS011;19889;52.546;13.348;2023-04-07T12:03:33;6.17;;;4.47;;
16522;SDS011;19889;52.546;13.348;2023-04-07T12:06:00;5.17;;;4.23;;
16522;SDS011;19889;52.546;13.348;2023-04-07T12:08:35;4.97;;;3.90;;
16522;SDS011;19889;52.546;13.348;2023-04-07T12:11:06;6.90;;;4.50;;
16522;SDS011;19889;52.546;13.348;2023-04-07T12:13:34;5.87;;;4.13;;
16522;SDS011;19889;52.546;13.348;2023-04-07T12:16:02;5.13;;;3.73;;
16522;SDS011;19889;52.546;13.348;2023-04-07T12:18:29;4.80;;;3.50;;
16522;SDS011;19889;52.546;13.348;2023-04-07T12:20:56;5.77;;;3.50;;
16522;SDS011;19889;52.546;13.348;2023-04-07T12:23:25;4.80;;;3.80;;
16522;SDS011;19889;52.546;13.348;2023-04-07T12:25:52;4.70;;;3.93;;
16522;SDS011;19889;52.546;13.348;2023-04-07T12:28:19;5.07;;;3.77;;
16522;SDS011;19889;52.546;13.348;2023-04-07T12:30:46;5.13;;;3.77;;
16522;SDS011;19889;52.546;13.348;2023-04-07T12:33:13;4.83;;;3.77;;
16522;SDS011;19889;52.546;13.348;2023-04-07T12:35:40;6.57;;;4.00;;
16522;SDS011;19889;52.546;13.348;2023-04-07T12:38:07;5.73;;;4.10;;
16522;SDS011;19889;52.546;13.348;2023-04-07T12:40:35;4.23;;;3.23;;
16522;SDS011;19889;52.546;13.348;2023-04-07T12:43:03;5.80;;;3.47;;
16522;SDS011;19889;52.546;13.348;2023-04-07T12:45:30;4.13;;;3.43;;
16522;SDS011;19889;52.546;13.348;2023-04-07T12:47:57;4.37;;;3.33;;
16522;SDS011;19889;52.546;13.348;2023-04-07T12:50:24;6.53;;;3.50;;
16522;SDS011;19889;52.546;13.348;2023-04-07T12:52:51;5.33;;;3.00;;
16522;SDS011;19889;52.546;13.348;2023-04-07T12:55:19;4.60;;;3.50;;
16522;SDS011;19889;52.546;13.348;2023-04-07T12:57:47;4.13;;;3.07;;
16522;SDS011;19889;52.546;13.348;2023-04-07T13:00:14;3.10;;;2.80;;
16522;SDS011;19889;52.546;13.348;2023-04-07T13:02:41;3.47;;;2.43;;
16522;SDS011;19889;52.546;13.348;2023-04-07T13:05:09;3.27;;;2.43;;
16522;SDS011;19889;52.546;13.348;2023-04-07T13:07:36;4.23;;;2.87;;
16522;SDS011;19889;52.546;13.348;2023-04-07T13:10:04;3.10;;;2.67;;
16522;SDS011;19889;52.546;13.348;2023-04-07T13:12:33;2.97;;;2.67;;
16522;SDS011;19889;52.546;13.348;2023-04-07T13:15:03;3.20;;;2.90;;
16522;SDS011;19889;52.546;13.348;2023-04-07T13:17:31;4.67;;;2.70;;
16522;SDS011;19889;52.546;13.348;2023-04-07T13:20:00;4.10;;;3.13;;
16522;SDS011;19889;52.546;13.348;2023-04-07T13:22:27;4.40;;;3.20;;
16522;SDS011;19889;52.546;13.348;2023-04-07T13:24:54;3.17;;;2.80;;
16522;SDS011;19889;52.546;13.348;2023-04-07T13:27:22;4.03;;;2.57;;
16522;SDS011;19889;52.546;13.348;2023-04-07T13:29:49;3.73;;;2.80;;
16522;SDS011;19889;52.546;13.348;2023-04-07T13:32:17;3.50;;;2.67;;
16522;SDS011;19889;52.546;13.348;2023-04-07T13:34:44;3.67;;;3.03;;
16522;SDS011;19889;52.546;13.348;2023-04-07T13:37:11;6.03;;;3.13;;
16522;SDS011;19889;52.546;13.348;2023-04-07T13:39:38;3.63;;;2.93;;
16522;SDS011;19889;52.546;13.348;2023-04-07T13:42:05;3.70;;;3.30;;
16522;SDS011;19889;52.546;13.348;2023-04-07T13:44:33;3.07;;;2.70;;
16522;SDS011;19889;52.546;13.348;2023-04-07T13:47:01;4.40;;;2.97;;
16522;SDS011;19889;52.546;13.348;2023-04-07T13:49:29;5.70;;;3.00;;
16522;SDS011;19889;52.546;13.348;2023-04-07T13:51:56;3.43;;;2.97;;
16522;SDS011;19889;52.546;13.348;2023-04-07T13:54:23;5.67;;;3.43;;
16522;SDS011;19889;52.546;13.348;2023-04-07T13:56:50;4.53;;;2.80;;
16522;SDS011;19889;52.546;13.348;2023-04-07T13:59:18;4.00;;;2.73;;
16522;SDS011;19889;52.546;13.348;2023-04-07T14:01:45;3.47;;;2.93;;
16522;SDS011;19889;52.546;13.348;2023-04-07T14:04:11;5.47;;;3.23;;
16522;SDS011;19889;52.546;13.348;2023-04-07T14:06:40;4.53;;;2.60;;
16522;SDS011;19889;52.546;13.348;2023-04-07T14:09:08;3.67;;;2.77;;
16522;SDS011;19889;52.546;13.348;2023-04-07T14:11:35;4.20;;;3.33;;
16522;SDS011;19889;52.546;13.348;2023-04-07T14:14:02;4.40;;;3.37;;
16522;SDS011;19889;52.546;13.348;2023-04-07T14:16:29;5.73;;;2.87;;
16522;SDS011;19889;52.546;13.348;2023-04-07T14:18:56;3.73;;;2.87;;
16522;SDS011;19889;52.546;13.348;2023-04-07T14:21:23;4.17;;;3.00;;
16522;SDS011;19889;52.546;13.348;2023-04-07T14:23:53;4.27;;;2.77;;
16522;SDS011;19889;52.546;13.348;2023-04-07T14:26:20;4.87;;;3.53;;
16522;SDS011;19889;52.546;13.348;2023-04-07T14:28:47;3.17;;;2.70;;
16522;SDS011;19889;52.546;13.348;2023-04-07T14:31:14;3.57;;;2.90;;
16522;SDS011;19889;52.546;13.348;2023-04-07T14:33:42;4.13;;;3.00;;
16522;SDS011;19889;52.546;13.348;2023-04-07T14:36:09;4.60;;;3.00;;
16522;SDS011;19889;52.546;13.348;2023-04-07T14:38:36;3.90;;;3.13;;
16522;SDS011;19889;52.546;13.348;2023-04-07T14:41:05;3.60;;;2.83;;
16522;SDS011;19889;52.546;13.348;2023-04-07T14:43:32;5.00;;;3.70;;
16522;SDS011;19889;52.546;13.348;2023-04-07T14:45:59;5.67;;;3.83;;
16522;SDS011;19889;52.546;13.348;2023-04-07T14:48:26;3.80;;;3.20;;
16522;SDS011;19889;52.546;13.348;2023-04-07T14:50:53;4.97;;;3.20;;
16522;SDS011;19889;52.546;13.348;2023-04-07T14:53:20;5.33;;;3.53;;